Terminal Aerodrome Forecast
Issued by NWS

Home | Current Version | Previous Version | Text Only | Print | Product List | Glossary On
Versions: 1 2 3 4 5 6 7 8 9 10 11 12 13
000
FTUS45 KABQ 111149 CCA
TAFGUP
TAF COR
KGUP 111149Z 1112/1212 23011KT P6SM VCSH SCT020 BKN050
      TEMPO 1113/1117 BKN020
     FM111900 27011KT P6SM SCT030 BKN060
     FM120100 VRB03KT P6SM BKN200=

USA.gov is the U.S. government's official web portal to all federal, state and local government web resources and services.